sensor_id;sensor_type;location;lat;lon;timestamp;pressure;altitude;pressure_sealevel;temperature;humidity
40730;BME280;26418;50.070;8.436;2023-06-14T00:01:39;99632.38;;;19.48;37.70
40730;BME280;26418;50.070;8.436;2023-06-14T00:04:05;99655.09;;;19.49;37.77
40730;BME280;26418;50.070;8.436;2023-06-14T00:06:31;99646.81;;;19.45;37.95
40730;BME280;26418;50.070;8.436;2023-06-14T00:09:30;99651.09;;;19.43;37.97
40730;BME280;26418;50.070;8.436;2023-06-14T00:12:14;99648.72;;;19.41;37.87
40730;BME280;26418;50.070;8.436;2023-06-14T00:21:27;99648.41;;;19.23;38.35
40730;BME280;26418;50.070;8.436;2023-06-14T00:23:58;99650.00;;;19.24;38.24
40730;BME280;26418;50.070;8.436;2023-06-14T00:26:30;99645.19;;;19.17;38.28
40730;BME280;26418;50.070;8.436;2023-06-14T00:29:14;99656.06;;;19.14;38.32
40730;BME280;26418;50.070;8.436;2023-06-14T00:32:04;99657.97;;;19.10;38.63
40730;BME280;26418;50.070;8.436;2023-06-14T00:34:30;99656.69;;;19.04;38.57
40730;BME280;26418;50.070;8.436;2023-06-14T00:37:29;99660.97;;;19.01;38.57
40730;BME280;26418;50.070;8.436;2023-06-14T00:40:20;99658.63;;;19.03;38.43
40730;BME280;26418;50.070;8.436;2023-06-14T00:42:49;99654.25;;;18.98;38.85
40730;BME280;26418;50.070;8.436;2023-06-14T00:45:15;99652.31;;;18.99;38.64
40730;BME280;26418;50.070;8.436;2023-06-14T00:47:41;99644.75;;;18.92;38.88
40730;BME280;26418;50.070;8.436;2023-06-14T00:50:17;99648.59;;;18.91;38.76
40730;BME280;26418;50.070;8.436;2023-06-14T00:52:54;99645.81;;;18.88;38.58
40730;BME280;26418;50.070;8.436;2023-06-14T00:55:26;99648.34;;;18.77;38.88
40730;BME280;26418;50.070;8.436;2023-06-14T00:57:55;99653.53;;;18.82;38.84
40730;BME280;26418;50.070;8.436;2023-06-14T01:00:45;99650.84;;;18.85;38.89
40730;BME280;26418;50.070;8.436;2023-06-14T01:03:11;99653.59;;;18.85;38.76
40730;BME280;26418;50.070;8.436;2023-06-14T01:05:38;99653.53;;;18.82;38.84
40730;BME280;26418;50.070;8.436;2023-06-14T01:08:24;99654.31;;;18.82;38.82
40730;BME280;26418;50.070;8.436;2023-06-14T01:11:05;99652.69;;;18.78;38.92
40730;BME280;26418;50.070;8.436;2023-06-14T01:13:38;99647.63;;;18.80;38.72
40730;BME280;26418;50.070;8.436;2023-06-14T01:16:08;99654.25;;;18.79;38.96
40730;BME280;26418;50.070;8.436;2023-06-14T01:18:40;99653.81;;;18.77;38.79
40730;BME280;26418;50.070;8.436;2023-06-14T01:21:20;99654.53;;;18.74;38.68
40730;BME280;26418;50.070;8.436;2023-06-14T01:23:45;99656.88;;;18.72;38.72
40730;BME280;26418;50.070;8.436;2023-06-14T01:26:18;99648.56;;;18.68;38.81
40730;BME280;26418;50.070;8.436;2023-06-14T01:28:44;99651.72;;;18.70;39.01
40730;BME280;26418;50.070;8.436;2023-06-14T01:31:21;99638.63;;;18.60;38.95
40730;BME280;26418;50.070;8.436;2023-06-14T01:33:51;99649.75;;;18.67;39.03
40730;BME280;26418;50.070;8.436;2023-06-14T01:36:27;99653.63;;;18.66;38.91
40730;BME280;26418;50.070;8.436;2023-06-14T01:39:12;99658.22;;;18.62;38.99
40730;BME280;26418;50.070;8.436;2023-06-14T01:41:58;99653.91;;;18.61;38.91
40730;BME280;26418;50.070;8.436;2023-06-14T01:44:24;99660.91;;;18.58;39.10
40730;BME280;26418;50.070;8.436;2023-06-14T01:46:50;99649.94;;;18.58;39.16
40730;BME280;26418;50.070;8.436;2023-06-14T01:49:28;99656.88;;;18.52;39.08
40730;BME280;26418;50.070;8.436;2023-06-14T01:52:13;99663.50;;;18.51;39.06
40730;BME280;26418;50.070;8.436;2023-06-14T01:54:38;99657.88;;;18.44;39.18
40730;BME280;26418;50.070;8.436;2023-06-14T01:57:16;99649.22;;;18.42;39.12
40730;BME280;26418;50.070;8.436;2023-06-14T01:59:42;99659.03;;;18.43;39.55
40730;BME280;26418;50.070;8.436;2023-06-14T02:02:08;99658.66;;;18.44;39.28
40730;BME280;26418;50.070;8.436;2023-06-14T02:04:33;99658.72;;;18.48;39.30
40730;BME280;26418;50.070;8.436;2023-06-14T02:06:59;99659.53;;;18.48;39.16
40730;BME280;26418;50.070;8.436;2023-06-14T02:09:25;99661.31;;;18.41;39.26
40730;BME280;26418;50.070;8.436;2023-06-14T02:11:51;99660.03;;;18.34;39.56
40730;BME280;26418;50.070;8.436;2023-06-14T02:14:16;99662.84;;;18.38;39.38
40730;BME280;26418;50.070;8.436;2023-06-14T02:16:42;99648.44;;;18.41;39.21
40730;BME280;26418;50.070;8.436;2023-06-14T02:19:17;99664.94;;;18.45;39.30
40730;BME280;26418;50.070;8.436;2023-06-14T02:21:43;99659.97;;;18.31;39.44
40730;BME280;26418;50.070;8.436;2023-06-14T02:24:12;99653.69;;;18.30;39.68
40730;BME280;26418;50.070;8.436;2023-06-14T02:26:38;99665.88;;;18.33;39.63
40730;BME280;26418;50.070;8.436;2023-06-14T02:29:07;99660.34;;;18.29;39.72
40730;BME280;26418;50.070;8.436;2023-06-14T02:31:38;99669.69;;;18.28;39.74
40730;BME280;26418;50.070;8.436;2023-06-14T02:34:12;99672.69;;;18.23;39.82
40730;BME280;26418;50.070;8.436;2023-06-14T02:36:38;99662.81;;;18.18;39.94
40730;BME280;26418;50.070;8.436;2023-06-14T02:39:09;99666.69;;;18.17;40.09
40730;BME280;26418;50.070;8.436;2023-06-14T02:41:35;99669.72;;;18.12;40.03
40730;BME280;26418;50.070;8.436;2023-06-14T02:44:04;99677.94;;;18.12;40.10
40730;BME280;26418;50.070;8.436;2023-06-14T02:46:29;99665.41;;;18.11;40.17
40730;BME280;26418;50.070;8.436;2023-06-14T02:48:59;99671.25;;;18.10;40.20
40730;BME280;26418;50.070;8.436;2023-06-14T02:51:24;99672.75;;;18.07;40.18
40730;BME280;26418;50.070;8.436;2023-06-14T02:53:50;99674.69;;;18.06;40.47
40730;BME280;26418;50.070;8.436;2023-06-14T02:56:16;99673.47;;;18.04;40.45
40730;BME280;26418;50.070;8.436;2023-06-14T02:58:48;99672.31;;;18.05;40.42
40730;BME280;26418;50.070;8.436;2023-06-14T03:01:27;99664.81;;;18.02;40.58
40730;BME280;26418;50.070;8.436;2023-06-14T03:03:59;99677.25;;;17.99;40.43
40730;BME280;26418;50.070;8.436;2023-06-14T03:06:24;99672.53;;;17.96;40.77
40730;BME280;26418;50.070;8.436;2023-06-14T03:09:05;99681.16;;;17.98;40.56
40730;BME280;26418;50.070;8.436;2023-06-14T03:11:37;99687.31;;;17.95;40.58
40730;BME280;26418;50.070;8.436;2023-06-14T03:14:20;99682.19;;;17.94;40.79
40730;BME280;26418;50.070;8.436;2023-06-14T03:16:52;99687.16;;;17.88;41.06
40730;BME280;26418;50.070;8.436;2023-06-14T03:19:22;99691.91;;;17.91;40.89
40730;BME280;26418;50.070;8.436;2023-06-14T03:21:48;99692.09;;;17.82;40.96
40730;BME280;26418;50.070;8.436;2023-06-14T03:24:15;99691.13;;;17.74;41.04
40730;BME280;26418;50.070;8.436;2023-06-14T03:26:43;99698.19;;;17.75;40.99
40730;BME280;26418;50.070;8.436;2023-06-14T03:29:09;99697.50;;;17.79;40.88
40730;BME280;26418;50.070;8.436;2023-06-14T03:31:34;99699.25;;;17.87;41.16
40730;BME280;26418;50.070;8.436;2023-06-14T03:34:01;99701.63;;;17.88;40.76
40730;BME280;26418;50.070;8.436;2023-06-14T03:36:27;99713.09;;;17.94;40.83
40730;BME280;26418;50.070;8.436;2023-06-14T03:38:56;99696.59;;;17.90;40.73
40730;BME280;26418;50.070;8.436;2023-06-14T03:41:21;99697.38;;;17.91;40.69
40730;BME280;26418;50.070;8.436;2023-06-14T03:43:48;99705.44;;;18.00;40.75
40730;BME280;26418;50.070;8.436;2023-06-14T03:46:13;99709.31;;;17.99;40.85
40730;BME280;26418;50.070;8.436;2023-06-14T03:48:39;99705.34;;;17.96;40.88
40730;BME280;26418;50.070;8.436;2023-06-14T03:51:04;99724.59;;;18.00;41.26
40730;BME280;26418;50.070;8.436;2023-06-14T03:53:30;99728.09;;;18.00;41.21
40730;BME280;26418;50.070;8.436;2023-06-14T03:55:56;99729.97;;;17.96;41.25
40730;BME280;26418;50.070;8.436;2023-06-14T03:58:22;99724.81;;;17.95;41.45
40730;BME280;26418;50.070;8.436;2023-06-14T04:00:48;99731.63;;;18.01;41.27
40730;BME280;26418;50.070;8.436;2023-06-14T04:03:14;99728.97;;;17.88;41.61
40730;BME280;26418;50.070;8.436;2023-06-14T04:05:41;99735.06;;;17.82;41.69
40730;BME280;26418;50.070;8.436;2023-06-14T04:08:09;99736.75;;;17.86;41.83
40730;BME280;26418;50.070;8.436;2023-06-14T04:10:35;99730.66;;;17.77;42.01
40730;BME280;26418;50.070;8.436;2023-06-14T04:13:01;99734.38;;;17.85;41.98
40730;BME280;26418;50.070;8.436;2023-06-14T04:15:26;99722.28;;;17.86;41.48
40730;BME280;26418;50.070;8.436;2023-06-14T04:17:55;99743.31;;;17.98;41.38
40730;BME280;26418;50.070;8.436;2023-06-14T04:20:22;99740.66;;;18.01;41.96
40730;BME280;26418;50.070;8.436;2023-06-14T04:22:50;99737.28;;;18.08;41.31
40730;BME280;26418;50.070;8.436;2023-06-14T04:25:16;99731.22;;;17.99;41.27
40730;BME280;26418;50.070;8.436;2023-06-14T04:27:42;99742.75;;;18.08;41.55
40730;BME280;26418;50.070;8.436;2023-06-14T04:30:08;99742.69;;;18.04;41.36
40730;BME280;26418;50.070;8.436;2023-06-14T04:32:34;99751.47;;;18.14;41.34
40730;BME280;26418;50.070;8.436;2023-06-14T04:35:07;99753.88;;;18.15;41.39
40730;BME280;26418;50.070;8.436;2023-06-14T04:37:33;99751.84;;;18.12;41.53
40730;BME280;26418;50.070;8.436;2023-06-14T04:39:59;99757.03;;;18.17;41.47
40730;BME280;26418;50.070;8.436;2023-06-14T04:42:25;99751.22;;;18.19;41.41
40730;BME280;26418;50.070;8.436;2023-06-14T04:44:55;99757.91;;;18.21;41.42
40730;BME280;26418;50.070;8.436;2023-06-14T04:47:21;99754.13;;;18.26;41.35
40730;BME280;26418;50.070;8.436;2023-06-14T04:49:46;99763.72;;;18.36;42.77
40730;BME280;26418;50.070;8.436;2023-06-14T04:52:12;99761.50;;;18.42;41.50
40730;BME280;26418;50.070;8.436;2023-06-14T04:54:39;99767.41;;;18.44;41.50
40730;BME280;26418;50.070;8.436;2023-06-14T04:57:07;99763.88;;;18.43;41.54
40730;BME280;26418;50.070;8.436;2023-06-14T04:59:33;99775.25;;;18.45;41.33
40730;BME280;26418;50.070;8.436;2023-06-14T05:02:01;99771.38;;;18.46;41.51
40730;BME280;26418;50.070;8.436;2023-06-14T05:04:27;99774.91;;;18.47;41.77
40730;BME280;26418;50.070;8.436;2023-06-14T05:06:53;99786.72;;;18.51;41.84
40730;BME280;26418;50.070;8.436;2023-06-14T05:09:20;99784.88;;;18.55;41.57
40730;BME280;26418;50.070;8.436;2023-06-14T05:11:46;99781.41;;;18.58;41.94
40730;BME280;26418;50.070;8.436;2023-06-14T05:14:13;99780.63;;;18.58;41.61
40730;BME280;26418;50.070;8.436;2023-06-14T05:16:39;99775.56;;;18.60;41.70
40730;BME280;26418;50.070;8.436;2023-06-14T05:19:06;99787.56;;;18.71;41.36
40730;BME280;26418;50.070;8.436;2023-06-14T05:21:32;99787.41;;;18.64;41.86
40730;BME280;26418;50.070;8.436;2023-06-14T05:24:00;99790.16;;;18.64;42.36
40730;BME280;26418;50.070;8.436;2023-06-14T05:26:26;99791.19;;;18.75;41.89
40730;BME280;26418;50.070;8.436;2023-06-14T05:28:58;99791.97;;;18.76;41.21
40730;BME280;26418;50.070;8.436;2023-06-14T05:31:25;99789.50;;;18.70;41.22
40730;BME280;26418;50.070;8.436;2023-06-14T05:33:52;99789.94;;;18.73;41.59
40730;BME280;26418;50.070;8.436;2023-06-14T05:36:18;99797.44;;;18.76;41.31
40730;BME280;26418;50.070;8.436;2023-06-14T05:38:45;99793.09;;;18.75;41.67
40730;BME280;26418;50.070;8.436;2023-06-14T05:41:10;99798.97;;;18.73;41.61
40730;BME280;26418;50.070;8.436;2023-06-14T05:43:36;99801.84;;;18.80;41.81
40730;BME280;26418;50.070;8.436;2023-06-14T05:46:02;99809.06;;;18.89;41.71
40730;BME280;26418;50.070;8.436;2023-06-14T05:48:28;99797.59;;;18.83;41.24
40730;BME280;26418;50.070;8.436;2023-06-14T05:50:53;99802.84;;;18.72;41.51
40730;BME280;26418;50.070;8.436;2023-06-14T05:53:19;99812.72;;;18.77;41.93
40730;BME280;26418;50.070;8.436;2023-06-14T05:55:44;99810.78;;;18.77;42.51
40730;BME280;26418;50.070;8.436;2023-06-14T05:58:10;99815.47;;;18.77;42.36
40730;BME280;26418;50.070;8.436;2023-06-14T06:00:36;99817.06;;;18.78;42.60
40730;BME280;26418;50.070;8.436;2023-06-14T06:03:01;99821.72;;;18.77;42.66
40730;BME280;26418;50.070;8.436;2023-06-14T06:05:27;99826.50;;;18.80;42.95
40730;BME280;26418;50.070;8.436;2023-06-14T06:07:52;99835.69;;;18.88;42.74
40730;BME280;26418;50.070;8.436;2023-06-14T06:10:18;99834.63;;;18.93;43.17
40730;BME280;26418;50.070;8.436;2023-06-14T06:12:44;99841.16;;;18.88;43.17
40730;BME280;26418;50.070;8.436;2023-06-14T06:15:10;99834.66;;;18.77;43.38
40730;BME280;26418;50.070;8.436;2023-06-14T06:17:38;99836.25;;;18.78;43.44
40730;BME280;26418;50.070;8.436;2023-06-14T06:20:05;99837.69;;;18.91;43.23
40730;BME280;26418;50.070;8.436;2023-06-14T06:22:34;99840.19;;;18.96;43.40
40730;BME280;26418;50.070;8.436;2023-06-14T06:24:59;99832.75;;;18.97;43.32
40730;BME280;26418;50.070;8.436;2023-06-14T06:27:25;99846.16;;;19.02;43.37
40730;BME280;26418;50.070;8.436;2023-06-14T06:29:50;99836.44;;;19.05;42.93
40730;BME280;26418;50.070;8.436;2023-06-14T06:32:17;99843.06;;;19.04;43.09
40730;BME280;26418;50.070;8.436;2023-06-14T06:34:42;99852.88;;;19.05;43.16
40730;BME280;26418;50.070;8.436;2023-06-14T06:37:08;99847.34;;;19.01;43.38
40730;BME280;26418;50.070;8.436;2023-06-14T06:39:33;99842.50;;;18.94;43.38
40730;BME280;26418;50.070;8.436;2023-06-14T06:41:59;99855.34;;;19.10;43.20
40730;BME280;26418;50.070;8.436;2023-06-14T06:44:25;99853.03;;;19.12;43.26
40730;BME280;26418;50.070;8.436;2023-06-14T06:46:50;99864.00;;;19.31;42.78
40730;BME280;26418;50.070;8.436;2023-06-14T06:49:16;99853.31;;;19.26;42.63
40730;BME280;26418;50.070;8.436;2023-06-14T06:51:42;99854.34;;;19.38;42.75
40730;BME280;26418;50.070;8.436;2023-06-14T06:54:08;99860.16;;;19.36;43.11
40730;BME280;26418;50.070;8.436;2023-06-14T06:56:35;99857.22;;;19.45;43.35
40730;BME280;26418;50.070;8.436;2023-06-14T06:59:00;99860.66;;;19.42;42.78
40730;BME280;26418;50.070;8.436;2023-06-14T07:01:26;99868.75;;;19.35;43.13
40730;BME280;26418;50.070;8.436;2023-06-14T07:03:54;99864.94;;;19.39;43.09
40730;BME280;26418;50.070;8.436;2023-06-14T07:06:20;99862.25;;;19.43;43.49
40730;BME280;26418;50.070;8.436;2023-06-14T07:08:46;99866.28;;;19.49;43.44
40730;BME280;26418;50.070;8.436;2023-06-14T07:11:14;99868.38;;;19.56;43.76
40730;BME280;26418;50.070;8.436;2023-06-14T07:13:39;99858.75;;;19.66;43.47
40730;BME280;26418;50.070;8.436;2023-06-14T07:16:05;99861.41;;;19.82;42.98
40730;BME280;26418;50.070;8.436;2023-06-14T07:18:31;99878.31;;;19.84;42.94
40730;BME280;26418;50.070;8.436;2023-06-14T07:20:57;99870.31;;;19.94;43.05
40730;BME280;26418;50.070;8.436;2023-06-14T07:23:23;99868.53;;;20.06;43.02
40730;BME280;26418;50.070;8.436;2023-06-14T07:25:49;99870.31;;;20.18;42.44
40730;BME280;26418;50.070;8.436;2023-06-14T07:28:16;99870.00;;;20.23;42.03
40730;BME280;26418;50.070;8.436;2023-06-14T07:30:42;99875.84;;;20.21;42.47
40730;BME280;26418;50.070;8.436;2023-06-14T07:33:08;99884.94;;;20.25;42.07
40730;BME280;26418;50.070;8.436;2023-06-14T07:35:33;99870.47;;;20.29;42.33
40730;BME280;26418;50.070;8.436;2023-06-14T07:37:59;99881.97;;;20.34;42.07
40730;BME280;26418;50.070;8.436;2023-06-14T07:40:25;99861.13;;;20.33;42.06
40730;BME280;26418;50.070;8.436;2023-06-14T07:42:50;99875.81;;;20.45;42.01
40730;BME280;26418;50.070;8.436;2023-06-14T07:45:16;99884.69;;;20.61;41.87
40730;BME280;26418;50.070;8.436;2023-06-14T07:47:42;99871.81;;;20.65;41.40
40730;BME280;26418;50.070;8.436;2023-06-14T07:50:08;99878.91;;;20.66;41.79
40730;BME280;26418;50.070;8.436;2023-06-14T07:52:33;99878.72;;;20.79;41.34
40730;BME280;26418;50.070;8.436;2023-06-14T07:54:59;99860.56;;;20.74;41.39
40730;BME280;26418;50.070;8.436;2023-06-14T07:57:25;99873.44;;;20.93;41.33
40730;BME280;26418;50.070;8.436;2023-06-14T07:59:51;99880.97;;;21.00;41.23
40730;BME280;26418;50.070;8.436;2023-06-14T08:02:16;99869.56;;;20.98;40.48
40730;BME280;26418;50.070;8.436;2023-06-14T08:04:42;99877.31;;;21.19;40.81
40730;BME280;26418;50.070;8.436;2023-06-14T08:07:08;99880.69;;;21.39;40.10
40730;BME280;26418;50.070;8.436;2023-06-14T08:09:35;99876.50;;;21.52;40.00
40730;BME280;26418;50.070;8.436;2023-06-14T08:12:04;99880.09;;;21.57;39.73
40730;BME280;26418;50.070;8.436;2023-06-14T08:14:33;99873.88;;;21.63;38.81
40730;BME280;26418;50.070;8.436;2023-06-14T08:16:59;99878.69;;;21.70;38.97
40730;BME280;26418;50.070;8.436;2023-06-14T08:19:24;99874.94;;;21.89;39.43
40730;BME280;26418;50.070;8.436;2023-06-14T08:21:50;99873.88;;;22.05;38.91
40730;BME280;26418;50.070;8.436;2023-06-14T08:24:16;99871.63;;;22.14;39.04
40730;BME280;26418;50.070;8.436;2023-06-14T08:26:44;99872.19;;;22.38;38.50
40730;BME280;26418;50.070;8.436;2023-06-14T08:29:09;99882.91;;;22.43;37.70
40730;BME280;26418;50.070;8.436;2023-06-14T08:31:35;99875.84;;;22.49;37.71
40730;BME280;26418;50.070;8.436;2023-06-14T08:34:01;99864.06;;;22.52;37.26
40730;BME280;26418;50.070;8.436;2023-06-14T08:36:27;99868.00;;;22.51;37.24
40730;BME280;26418;50.070;8.436;2023-06-14T08:38:52;99867.31;;;22.65;37.38
40730;BME280;26418;50.070;8.436;2023-06-14T08:41:22;99869.00;;;22.84;36.61
40730;BME280;26418;50.070;8.436;2023-06-14T08:43:50;99859.13;;;22.83;35.58
40730;BME280;26418;50.070;8.436;2023-06-14T08:46:17;99873.84;;;23.05;35.46
40730;BME280;26418;50.070;8.436;2023-06-14T08:48:46;99880.94;;;23.06;35.04
40730;BME280;26418;50.070;8.436;2023-06-14T08:51:13;99882.88;;;23.02;34.50
40730;BME280;26418;50.070;8.436;2023-06-14T08:53:39;99874.25;;;23.11;34.93
40730;BME280;26418;50.070;8.436;2023-06-14T08:56:07;99872.41;;;23.33;34.96
40730;BME280;26418;50.070;8.436;2023-06-14T08:58:43;99876.44;;;23.65;35.08
40730;BME280;26418;50.070;8.436;2023-06-14T09:01:11;99872.91;;;23.93;34.16
40730;BME280;26418;50.070;8.436;2023-06-14T09:03:41;99880.88;;;24.16;33.25
40730;BME280;26418;50.070;8.436;2023-06-14T09:06:08;99885.59;;;24.38;33.43
40730;BME280;26418;50.070;8.436;2023-06-14T09:08:40;99871.38;;;24.43;32.69
40730;BME280;26418;50.070;8.436;2023-06-14T09:11:07;99884.03;;;24.55;32.16
40730;BME280;26418;50.070;8.436;2023-06-14T09:13:33;99882.84;;;24.34;31.71
40730;BME280;26418;50.070;8.436;2023-06-14T09:15:59;99886.41;;;24.13;31.86
40730;BME280;26418;50.070;8.436;2023-06-14T09:18:46;99872.56;;;24.13;32.21
40730;BME280;26418;50.070;8.436;2023-06-14T09:21:17;99880.84;;;24.34;32.39
40730;BME280;26418;50.070;8.436;2023-06-14T09:23:47;99879.69;;;24.46;30.63
40730;BME280;26418;50.070;8.436;2023-06-14T09:26:15;99878.06;;;24.60;31.46
40730;BME280;26418;50.070;8.436;2023-06-14T09:28:45;99891.50;;;24.65;31.06
40730;BME280;26418;50.070;8.436;2023-06-14T09:31:18;99889.13;;;24.82;31.47
40730;BME280;26418;50.070;8.436;2023-06-14T09:33:45;99890.31;;;24.84;31.34
40730;BME280;26418;50.070;8.436;2023-06-14T09:36:18;99899.81;;;24.79;31.30
40730;BME280;26418;50.070;8.436;2023-06-14T09:41:35;99912.84;;;24.54;31.23
40730;BME280;26418;50.070;8.436;2023-06-14T09:44:04;99909.69;;;24.59;31.84
40730;BME280;26418;50.070;8.436;2023-06-14T09:46:31;99894.69;;;24.67;31.03
40730;BME280;26418;50.070;8.436;2023-06-14T09:49:00;99899.78;;;24.65;31.02
40730;BME280;26418;50.070;8.436;2023-06-14T09:51:27;99901.78;;;24.57;30.84
40730;BME280;26418;50.070;8.436;2023-06-14T09:53:58;99900.63;;;24.55;31.10
40730;BME280;26418;50.070;8.436;2023-06-14T09:56:41;99897.03;;;24.58;31.95
40730;BME280;26418;50.070;8.436;2023-06-14T09:59:10;99904.53;;;24.83;30.99
40730;BME280;26418;50.070;8.436;2023-06-14T10:01:46;99910.47;;;24.81;30.81
40730;BME280;26418;50.070;8.436;2023-06-14T10:04:14;99909.69;;;24.73;31.22
40730;BME280;26418;50.070;8.436;2023-06-14T10:06:43;99906.50;;;24.89;30.72
40730;BME280;26418;50.070;8.436;2023-06-14T10:09:11;99906.00;;;25.23;30.55
40730;BME280;26418;50.070;8.436;2023-06-14T10:11:38;99903.13;;;25.56;29.66
40730;BME280;26418;50.070;8.436;2023-06-14T10:14:10;99889.50;;;25.83;30.49
40730;BME280;26418;50.070;8.436;2023-06-14T10:19:27;99897.66;;;26.09;29.11
40730;BME280;26418;50.070;8.436;2023-06-14T10:22:13;99892.31;;;25.76;29.83
40730;BME280;26418;50.070;8.436;2023-06-14T10:24:44;99893.50;;;25.79;29.29
40730;BME280;26418;50.070;8.436;2023-06-14T10:27:13;99895.38;;;25.93;29.37
40730;BME280;26418;50.070;8.436;2023-06-14T10:30:02;99895.38;;;25.93;29.50
40730;BME280;26418;50.070;8.436;2023-06-14T10:32:28;99892.66;;;25.89;29.29
40730;BME280;26418;50.070;8.436;2023-06-14T10:37:23;99901.63;;;26.04;30.64
40730;BME280;26418;50.070;8.436;2023-06-14T10:39:50;99888.06;;;26.20;29.67
40730;BME280;26418;50.070;8.436;2023-06-14T10:42:16;99888.22;;;26.51;29.52
40730;BME280;26418;50.070;8.436;2023-06-14T10:45:00;99894.53;;;26.52;29.58
40730;BME280;26418;50.070;8.436;2023-06-14T10:47:35;99886.38;;;26.76;29.02
40730;BME280;26418;50.070;8.436;2023-06-14T10:52:33;99895.78;;;26.89;28.30
40730;BME280;26418;50.070;8.436;2023-06-14T11:00:58;99885.50;;;27.21;27.63
40730;BME280;26418;50.070;8.436;2023-06-14T11:03:52;99882.13;;;27.37;28.43
40730;BME280;26418;50.070;8.436;2023-06-14T11:06:21;99878.78;;;27.53;28.06
40730;BME280;26418;50.070;8.436;2023-06-14T11:11:32;99897.94;;;27.98;27.08
40730;BME280;26418;50.070;8.436;2023-06-14T11:14:01;99877.50;;;28.12;26.97
40730;BME280;26418;50.070;8.436;2023-06-14T11:16:27;99880.09;;;28.23;26.94
40730;BME280;26418;50.070;8.436;2023-06-14T11:18:53;99885.50;;;28.58;26.52
40730;BME280;26418;50.070;8.436;2023-06-14T11:21:19;99886.31;;;28.98;25.97
40730;BME280;26418;50.070;8.436;2023-06-14T11:23:52;99879.91;;;29.22;25.48
40730;BME280;26418;50.070;8.436;2023-06-14T11:26:28;99870.78;;;29.21;25.95
40730;BME280;26418;50.070;8.436;2023-06-14T11:29:00;99878.59;;;29.26;25.87
40730;BME280;26418;50.070;8.436;2023-06-14T11:31:29;99869.97;;;29.21;25.75
40730;BME280;26418;50.070;8.436;2023-06-14T11:33:57;99872.94;;;29.50;25.11
40730;BME280;26418;50.070;8.436;2023-06-14T11:36:26;99882.75;;;29.75;24.67
40730;BME280;26418;50.070;8.436;2023-06-14T11:39:01;99871.47;;;29.62;25.27
40730;BME280;26418;50.070;8.436;2023-06-14T11:41:46;99881.31;;;30.03;24.23
40730;BME280;26418;50.070;8.436;2023-06-14T11:44:12;99881.78;;;29.08;25.58
40730;BME280;26418;50.070;8.436;2023-06-14T11:46:37;99876.28;;;28.61;26.22
40730;BME280;26418;50.070;8.436;2023-06-14T11:49:04;99877.25;;;28.74;26.60
40730;BME280;26418;50.070;8.436;2023-06-14T11:51:36;99871.34;;;29.32;25.52
40730;BME280;26418;50.070;8.436;2023-06-14T11:54:03;99871.41;;;29.82;25.56
40730;BME280;26418;50.070;8.436;2023-06-14T11:56:30;99885.16;;;30.26;24.59
40730;BME280;26418;50.070;8.436;2023-06-14T11:58:57;99877.03;;;30.15;24.74
40730;BME280;26418;50.070;8.436;2023-06-14T12:01:23;99875.78;;;29.83;25.19
40730;BME280;26418;50.070;8.436;2023-06-14T12:03:50;99874.91;;;29.33;25.89
40730;BME280;26418;50.070;8.436;2023-06-14T12:06:16;99869.25;;;28.96;25.75
40730;BME280;26418;50.070;8.436;2023-06-14T12:08:43;99873.50;;;28.61;25.64
40730;BME280;26418;50.070;8.436;2023-06-14T12:11:11;99866.63;;;28.45;25.41
40730;BME280;26418;50.070;8.436;2023-06-14T12:13:42;99871.56;;;28.81;25.72
40730;BME280;26418;50.070;8.436;2023-06-14T12:16:11;99886.16;;;29.26;25.49
40730;BME280;26418;50.070;8.436;2023-06-14T12:18:38;99872.84;;;28.77;25.49
40730;BME280;26418;50.070;8.436;2023-06-14T12:21:07;99879.13;;;28.57;26.39
40730;BME280;26418;50.070;8.436;2023-06-14T12:26:15;99873.28;;;28.95;26.84
40730;BME280;26418;50.070;8.436;2023-06-14T12:28:44;99872.91;;;29.87;26.16
40730;BME280;26418;50.070;8.436;2023-06-14T12:31:11;99877.34;;;30.34;24.25
40730;BME280;26418;50.070;8.436;2023-06-14T12:33:37;99859.31;;;30.38;24.32
40730;BME280;26418;50.070;8.436;2023-06-14T12:36:04;99868.19;;;30.50;24.06
40730;BME280;26418;50.070;8.436;2023-06-14T12:38:32;99869.19;;;29.93;24.66
40730;BME280;26418;50.070;8.436;2023-06-14T12:40:57;99874.59;;;29.47;25.31
40730;BME280;26418;50.070;8.436;2023-06-14T12:43:23;99872.63;;;29.08;25.46
40730;BME280;26418;50.070;8.436;2023-06-14T12:45:49;99866.41;;;28.80;25.58
40730;BME280;26418;50.070;8.436;2023-06-14T12:48:15;99880.66;;;28.38;26.04
40730;BME280;26418;50.070;8.436;2023-06-14T12:50:41;99875.28;;;28.27;26.32
40730;BME280;26418;50.070;8.436;2023-06-14T12:53:07;99867.28;;;28.29;26.24
40730;BME280;26418;50.070;8.436;2023-06-14T12:55:32;99870.13;;;28.26;26.02
40730;BME280;26418;50.070;8.436;2023-06-14T12:57:58;99862.25;;;27.97;26.13
40730;BME280;26418;50.070;8.436;2023-06-14T13:00:23;99867.84;;;28.20;26.58
40730;BME280;26418;50.070;8.436;2023-06-14T13:02:51;99868.75;;;28.14;25.50
40730;BME280;26418;50.070;8.436;2023-06-14T13:05:17;99872.34;;;27.83;26.00
40730;BME280;26418;50.070;8.436;2023-06-14T13:07:43;99878.34;;;27.82;26.83
40730;BME280;26418;50.070;8.436;2023-06-14T13:10:10;99867.91;;;27.89;26.34
40730;BME280;26418;50.070;8.436;2023-06-14T13:12:36;99873.63;;;28.06;26.54
40730;BME280;26418;50.070;8.436;2023-06-14T13:15:02;99881.25;;;28.26;25.70
40730;BME280;26418;50.070;8.436;2023-06-14T13:17:28;99872.63;;;27.92;25.08
40730;BME280;26418;50.070;8.436;2023-06-14T13:19:53;99877.16;;;27.55;25.99
40730;BME280;26418;50.070;8.436;2023-06-14T13:22:19;99871.69;;;27.48;27.17
40730;BME280;26418;50.070;8.436;2023-06-14T13:24:45;99863.09;;;27.66;27.24
40730;BME280;26418;50.070;8.436;2023-06-14T13:27:10;99871.81;;;27.68;26.32
40730;BME280;26418;50.070;8.436;2023-06-14T13:29:36;99870.69;;;27.62;25.69
40730;BME280;26418;50.070;8.436;2023-06-14T13:32:03;99874.06;;;27.77;25.79
40730;BME280;26418;50.070;8.436;2023-06-14T13:34:29;99872.34;;;27.83;25.94
40730;BME280;26418;50.070;8.436;2023-06-14T13:36:56;99874.31;;;27.86;25.71